Terminal Aerodrome Forecast
Issued by NWS

Home | Current Version | Previous Version | Text Only | Print | Product List | Glossary On
Versions: 1 2 3 4 5 6 7 8 9 10 11 12 13 14 15 16 17 18 19 20
000
FTUS45 KRIW 220500
TAFJAC
TAF
KJAC 220521Z 2206/2306 20007KT P6SM SCT030 OVC045
     FM221200 VRB05KT P6SM SCT025 OVC040
     FM221900 21010KT P6SM FEW040 SCT250
     FM230100 VRB05KT P6SM SCT250
      AMD LTD TO CLD VIS AND WIND=

USA.gov is the U.S. government's official web portal to all federal, state and local government web resources and services.